createdAt,value
2022-11-29T00:01:28.843Z,83.20
2022-11-29T00:03:56.752Z,80.60
2022-11-29T00:06:27.637Z,78.97
2022-11-29T00:08:56.998Z,83.30
2022-11-29T00:11:46.458Z,91.00
2022-11-29T00:14:16.260Z,78.03
2022-11-29T00:16:44.082Z,85.20
2022-11-29T00:19:12.837Z,79.97
2022-11-29T00:21:39.901Z,75.53
2022-11-29T00:24:07.905Z,74.00
2022-11-29T00:26:37.147Z,75.60
2022-11-29T00:29:04.548Z,74.73
2022-11-29T00:31:33.653Z,78.30
2022-11-29T00:34:03.856Z,79.60
2022-11-29T00:36:31.362Z,76.07
2022-11-29T00:38:58.851Z,80.10
2022-11-29T00:41:26.090Z,76.33
2022-11-29T00:43:53.279Z,83.40
2022-11-29T00:46:20.760Z,77.63
2022-11-29T00:48:48.006Z,72.10
2022-11-29T00:51:15.182Z,80.93
2022-11-29T00:53:42.491Z,75.87
2022-11-29T00:56:09.752Z,72.03
2022-11-29T00:58:37.954Z,77.80
2022-11-29T01:01:06.149Z,75.60
2022-11-29T01:03:34.498Z,74.23
2022-11-29T01:06:05.310Z,69.60
2022-11-29T01:08:32.852Z,79.17
2022-11-29T01:11:20.748Z,71.90
2022-11-29T01:13:49.170Z,77.70
2022-11-29T01:16:17.446Z,63.40
2022-11-29T01:18:44.624Z,64.43
2022-11-29T01:21:14.039Z,63.03
2022-11-29T01:23:41.945Z,66.20
2022-11-29T01:26:12.468Z,63.97
2022-11-29T01:28:41.210Z,64.13
2022-11-29T01:31:29.689Z,56.40
2022-11-29T01:34:01.020Z,62.90
2022-11-29T01:36:28.850Z,61.37
2022-11-29T01:38:55.954Z,59.77
2022-11-29T01:41:25.721Z,66.07
2022-11-29T01:44:32.498Z,57.43
2022-11-29T01:46:59.681Z,53.47
2022-11-29T01:49:36.137Z,58.93
2022-11-29T01:52:25.108Z,52.57
2022-11-29T01:54:58.909Z,53.97
2022-11-29T01:57:26.695Z,56.93
2022-11-29T02:00:00.725Z,52.53
2022-11-29T02:02:34.207Z,56.73
2022-11-29T02:05:02.211Z,53.10
2022-11-29T02:07:29.425Z,51.53
2022-11-29T02:09:56.624Z,48.93
2022-11-29T02:13:03.416Z,51.63
2022-11-29T02:15:58.615Z,51.80
2022-11-29T02:19:05.438Z,61.53
2022-11-29T02:21:56.691Z,53.40
2022-11-29T02:24:59.951Z,50.47
2022-11-29T02:28:03.995Z,69.27
2022-11-29T02:30:58.028Z,53.17
2022-11-29T02:34:04.877Z,53.57
2022-11-29T02:37:11.918Z,52.33
2022-11-29T02:40:06.684Z,56.03
2022-11-29T02:43:13.440Z,51.03
2022-11-29T02:46:07.725Z,58.30
2022-11-29T02:48:55.915Z,54.43
2022-11-29T02:51:55.988Z,64.20
2022-11-29T02:54:46.793Z,65.97
2022-11-29T02:57:36.846Z,62.67
2022-11-29T03:00:13.614Z,60.27
2022-11-29T03:03:20.407Z,57.93
2022-11-29T03:06:06.949Z,52.27
2022-11-29T03:08:45.370Z,52.47
2022-11-29T03:11:38.252Z,51.23
2022-11-29T03:14:28.590Z,54.50
2022-11-29T03:17:35.349Z,50.97
2022-11-29T03:20:37.749Z,49.80
2022-11-29T03:23:44.562Z,45.00
2022-11-29T03:26:19.018Z,48.07
2022-11-29T03:29:11.599Z,47.85
2022-11-29T03:32:05.681Z,52.17
2022-11-29T03:35:04.473Z,47.75
2022-11-29T03:38:11.188Z,51.37
2022-11-29T03:43:18.319Z,41.23
2022-11-29T03:46:04.054Z,38.70
2022-11-29T03:56:39.784Z,38.23
2022-11-29T03:59:46.682Z,32.75
2022-11-29T04:02:53.658Z,38.08
2022-11-29T04:06:00.615Z,35.47
2022-11-29T04:09:07.379Z,30.37
2022-11-29T04:12:14.206Z,40.20
2022-11-29T04:15:15.649Z,34.05
2022-11-29T04:18:22.618Z,37.87
2022-11-29T04:21:29.469Z,36.77
2022-11-29T04:24:19.396Z,34.67
2022-11-29T04:27:26.216Z,39.37
2022-11-29T04:30:11.637Z,39.00
2022-11-29T04:33:18.411Z,32.83
2022-11-29T04:36:11.438Z,37.13
2022-11-29T04:39:18.139Z,42.10
2022-11-29T04:45:11.629Z,41.38
2022-11-29T04:50:52.538Z,37.03
2022-11-29T04:53:59.321Z,35.38
2022-11-29T04:56:39.876Z,36.95
2022-11-29T04:59:39.148Z,38.47
2022-11-29T05:02:31.696Z,35.88
2022-11-29T05:05:24.647Z,35.03
2022-11-29T05:08:22.772Z,29.23
2022-11-29T05:11:08.680Z,35.58
2022-11-29T05:14:02.275Z,33.30
2022-11-29T05:17:09.290Z,36.47
2022-11-29T05:20:16.173Z,29.07
2022-11-29T05:23:11.574Z,30.00
2022-11-29T05:26:02.558Z,34.17
2022-11-29T05:29:01.856Z,30.87
2022-11-29T05:32:09.017Z,33.90
2022-11-29T05:35:04.964Z,27.92
2022-11-29T05:37:55.341Z,30.63
2022-11-29T05:40:54.620Z,32.70
2022-11-29T05:44:01.347Z,31.67
2022-11-29T05:46:50.647Z,29.33
2022-11-29T05:49:51.384Z,31.80
2022-11-29T05:52:57.597Z,30.38
2022-11-29T05:55:49.725Z,35.78
2022-11-29T05:58:56.547Z,36.00
2022-11-29T06:01:26.431Z,32.67
2022-11-29T06:04:18.833Z,31.55
2022-11-29T06:07:25.613Z,35.33
2022-11-29T06:10:15.183Z,37.28
2022-11-29T06:12:48.755Z,37.20
2022-11-29T06:15:56.933Z,39.67
2022-11-29T06:19:03.783Z,38.15
2022-11-29T06:21:45.894Z,37.13
2022-11-29T06:24:28.548Z,37.22
2022-11-29T06:27:36.614Z,38.78
2022-11-29T06:30:14.961Z,40.27
2022-11-29T06:33:22.283Z,37.60
2022-11-29T06:36:18.074Z,42.35
2022-11-29T06:38:46.059Z,36.47
2022-11-29T06:41:18.580Z,35.73
2022-11-29T06:43:46.312Z,45.33
2022-11-29T06:46:53.230Z,38.57
2022-11-29T06:50:00.101Z,42.25
2022-11-29T06:53:06.907Z,40.42
2022-11-29T06:56:02.473Z,38.72
2022-11-29T06:59:09.255Z,42.88
2022-11-29T07:01:51.542Z,40.47
2022-11-29T07:04:58.769Z,39.22
2022-11-29T07:07:26.246Z,44.00
2022-11-29T07:09:58.615Z,42.90
2022-11-29T07:12:26.308Z,39.08
2022-11-29T07:14:53.878Z,44.95
2022-11-29T07:17:55.137Z,40.92
2022-11-29T07:20:48.678Z,38.38
2022-11-29T07:23:55.401Z,41.80
2022-11-29T07:26:58.038Z,43.20
2022-11-29T07:29:52.022Z,42.95
2022-11-29T07:33:00.643Z,45.78
2022-11-29T07:35:53.053Z,42.08
2022-11-29T07:38:59.751Z,42.00
2022-11-29T07:41:51.460Z,50.40
2022-11-29T07:44:45.436Z,47.37
2022-11-29T07:47:13.301Z,45.45
2022-11-29T07:49:40.399Z,47.15
2022-11-29T07:52:10.092Z,41.58
2022-11-29T07:54:37.154Z,44.75
2022-11-29T07:57:04.259Z,46.67
2022-11-29T07:59:31.367Z,47.47
2022-11-29T08:01:59.450Z,45.10
2022-11-29T08:04:26.732Z,47.17
2022-11-29T08:06:53.819Z,45.10
2022-11-29T08:09:20.877Z,51.13
2022-11-29T08:11:48.993Z,44.33
2022-11-29T08:14:16.503Z,47.05
2022-11-29T08:16:43.562Z,49.25
2022-11-29T08:19:10.717Z,51.78
2022-11-29T08:21:37.752Z,51.55
2022-11-29T08:24:05.372Z,45.67
2022-11-29T08:26:32.628Z,60.88
2022-11-29T08:28:59.713Z,50.72
2022-11-29T08:31:27.061Z,55.13
2022-11-29T08:33:54.169Z,55.00
2022-11-29T08:36:21.336Z,56.50
2022-11-29T08:38:48.658Z,51.40
2022-11-29T08:41:17.785Z,48.65
2022-11-29T08:43:45.278Z,53.45
2022-11-29T08:46:18.282Z,50.70
2022-11-29T08:48:46.416Z,53.63
2022-11-29T08:51:14.075Z,51.50
2022-11-29T08:53:42.322Z,50.13
2022-11-29T08:57:10.022Z,44.65
2022-11-29T08:59:16.366Z,49.88
2022-11-29T09:01:43.375Z,54.88
2022-11-29T09:04:12.104Z,53.90
2022-11-29T09:06:43.005Z,52.97
2022-11-29T09:09:10.330Z,52.22
2022-11-29T09:11:37.469Z,50.88
2022-11-29T09:14:08.518Z,55.03
2022-11-29T09:16:37.705Z,47.67
2022-11-29T09:19:05.598Z,47.42
2022-11-29T09:21:35.024Z,49.05
2022-11-29T09:24:05.596Z,56.90
2022-11-29T09:26:35.074Z,47.78
2022-11-29T09:29:04.527Z,52.60
2022-11-29T09:31:32.671Z,55.92
2022-11-29T09:34:00.195Z,54.50
2022-11-29T09:36:29.469Z,57.20
2022-11-29T09:38:57.580Z,62.50
2022-11-29T09:42:04.353Z,58.85
2022-11-29T09:44:56.156Z,51.45
2022-11-29T09:48:02.967Z,54.70
2022-11-29T09:50:45.763Z,59.33
2022-11-29T09:53:52.572Z,55.60
2022-11-29T09:56:41.804Z,57.20
2022-11-29T09:59:14.281Z,56.97
2022-11-29T10:01:51.615Z,64.60
2022-11-29T10:04:22.892Z,73.73
2022-11-29T10:07:29.695Z,63.50
2022-11-29T10:10:08.054Z,57.83
2022-11-29T10:12:44.386Z,55.83
2022-11-29T10:15:17.208Z,63.63
2022-11-29T10:18:07.877Z,53.40
2022-11-29T10:20:41.546Z,58.92
2022-11-29T10:23:36.889Z,57.90
2022-11-29T10:26:08.134Z,64.10
2022-11-29T10:28:37.287Z,63.28
2022-11-29T10:31:32.042Z,57.50
2022-11-29T10:34:02.626Z,63.67
2022-11-29T10:36:51.071Z,65.13
2022-11-29T10:39:58.801Z,65.13
2022-11-29T10:42:48.609Z,64.47
2022-11-29T10:45:46.081Z,66.40
2022-11-29T10:48:18.181Z,66.83
2022-11-29T10:50:48.857Z,60.47
2022-11-29T10:53:20.557Z,67.90
2022-11-29T10:56:11.201Z,63.40
2022-11-29T10:58:56.488Z,63.80
2022-11-29T11:01:24.694Z,65.82
2022-11-29T11:03:54.316Z,64.73
2022-11-29T11:06:45.489Z,66.77
2022-11-29T11:09:35.149Z,62.87
2022-11-29T11:12:06.423Z,63.77
2022-11-29T11:14:37.723Z,63.93
2022-11-29T11:17:27.387Z,59.33
2022-11-29T11:20:15.761Z,66.63
2022-11-29T11:22:44.115Z,68.70
2022-11-29T11:25:30.614Z,66.10
2022-11-29T11:28:10.761Z,65.03
2022-11-29T11:30:38.119Z,64.67
2022-11-29T11:33:26.991Z,62.27
2022-11-29T11:36:21.206Z,67.93
2022-11-29T11:39:27.976Z,70.07
2022-11-29T11:42:15.147Z,60.93
2022-11-29T11:44:50.512Z,61.38
2022-11-29T11:50:15.676Z,62.77
2022-11-29T11:52:52.519Z,53.33
2022-11-29T11:55:40.823Z,60.37
2022-11-29T11:58:38.180Z,67.17
2022-11-29T12:01:40.901Z,60.13
2022-11-29T12:04:31.772Z,62.87
2022-11-29T12:07:33.946Z,63.53
2022-11-29T12:10:19.629Z,66.90
2022-11-29T12:12:48.708Z,63.33
2022-11-29T12:15:38.629Z,68.70
2022-11-29T12:18:14.290Z,61.53
2022-11-29T12:21:04.698Z,64.00
2022-11-29T12:24:11.424Z,67.20
2022-11-29T12:26:58.367Z,71.93
2022-11-29T12:29:30.156Z,65.53
2022-11-29T12:32:26.555Z,67.70
2022-11-29T12:35:34.642Z,69.23
2022-11-29T12:38:31.815Z,62.90
2022-11-29T12:41:26.756Z,64.60
2022-11-29T12:44:18.932Z,63.83
2022-11-29T12:47:13.286Z,65.53
2022-11-29T12:50:01.344Z,66.07
2022-11-29T12:52:56.414Z,65.57
2022-11-29T12:55:49.583Z,67.00
2022-11-29T12:58:56.483Z,64.00
2022-11-29T13:02:04.333Z,68.10
2022-11-29T13:05:11.063Z,61.30
2022-11-29T13:11:04.607Z,70.70
2022-11-29T13:14:03.842Z,66.07
2022-11-29T13:17:03.801Z,69.97
2022-11-29T13:19:53.572Z,58.80
2022-11-29T13:22:46.738Z,64.00
2022-11-29T13:25:27.621Z,61.97
2022-11-29T13:27:59.875Z,74.47
2022-11-29T13:30:27.232Z,80.60
2022-11-29T13:33:18.299Z,68.47
2022-11-29T13:36:01.452Z,58.60
2022-11-29T13:39:08.122Z,58.70
2022-11-29T13:44:46.571Z,67.50
2022-11-29T13:47:16.835Z,61.80
2022-11-29T13:49:54.279Z,61.77
2022-11-29T13:53:01.152Z,59.60
2022-11-29T13:55:47.881Z,60.93
2022-11-29T13:58:36.620Z,58.37
2022-11-29T14:01:26.740Z,60.93
2022-11-29T14:04:21.919Z,64.07
2022-11-29T14:06:50.839Z,75.73
2022-11-29T14:09:42.929Z,68.93
2022-11-29T14:12:48.353Z,66.23
2022-11-29T14:15:34.268Z,63.90
2022-11-29T14:18:03.410Z,60.10
2022-11-29T14:20:57.107Z,63.90
2022-11-29T14:23:44.402Z,69.87
2022-11-29T14:26:27.918Z,63.17
2022-11-29T14:28:55.938Z,62.60
2022-11-29T14:31:51.007Z,58.80
2022-11-29T14:34:26.974Z,64.93
2022-11-29T14:37:19.590Z,68.47
2022-11-29T14:39:52.071Z,65.37
2022-11-29T14:42:22.091Z,65.57
2022-11-29T14:44:52.784Z,71.73
2022-11-29T14:47:42.691Z,72.82
2022-11-29T14:50:31.183Z,72.83
2022-11-29T14:52:58.758Z,68.43
2022-11-29T14:55:45.759Z,63.47
2022-11-29T14:58:19.591Z,67.57
2022-11-29T15:01:02.767Z,64.93
2022-11-29T15:03:41.782Z,59.47
2022-11-29T15:06:36.980Z,63.87
2022-11-29T15:09:19.275Z,61.35
2022-11-29T15:12:10.396Z,58.35
2022-11-29T15:15:17.116Z,62.13
2022-11-29T15:18:11.481Z,57.58
2022-11-29T15:21:18.317Z,59.83
2022-11-29T15:23:45.459Z,60.47
2022-11-29T15:26:19.210Z,60.50
2022-11-29T15:28:46.777Z,56.27
2022-11-29T15:31:16.724Z,62.80
2022-11-29T15:33:46.224Z,60.53
2022-11-29T15:36:34.654Z,58.35
2022-11-29T15:39:01.823Z,56.47
2022-11-29T15:41:31.874Z,63.00
2022-11-29T15:44:05.907Z,56.58
2022-11-29T15:46:35.690Z,56.55
2022-11-29T15:49:34.624Z,57.33
2022-11-29T15:52:08.576Z,58.30
2022-11-29T15:57:50.539Z,60.72
2022-11-29T16:00:36.105Z,71.03
2022-11-29T16:03:05.410Z,57.03
2022-11-29T16:05:36.530Z,56.55
2022-11-29T16:08:35.846Z,54.60
2022-11-29T16:11:06.142Z,58.47
2022-11-29T16:14:03.484Z,58.33
2022-11-29T16:16:41.755Z,59.50
2022-11-29T16:19:27.098Z,55.30
2022-11-29T16:22:37.582Z,47.90
2022-11-29T16:25:37.555Z,61.88
2022-11-29T16:28:17.682Z,52.97
2022-11-29T16:30:49.892Z,50.17
2022-11-29T16:33:26.963Z,51.70
2022-11-29T16:36:18.349Z,47.95
2022-11-29T16:38:51.460Z,52.45
2022-11-29T16:41:47.135Z,54.97
2022-11-29T16:45:02.427Z,50.00
2022-11-29T16:47:55.353Z,50.40
2022-11-29T16:50:30.418Z,53.50
2022-11-29T16:53:39.988Z,51.75
2022-11-29T16:56:20.701Z,50.30
2022-11-29T16:59:25.854Z,58.45
2022-11-29T17:02:10.028Z,55.83
2022-11-29T17:04:43.711Z,51.63
2022-11-29T17:07:30.717Z,49.90
2022-11-29T17:10:08.297Z,48.90
2022-11-29T17:12:36.066Z,53.35
2022-11-29T17:15:07.649Z,55.60
2022-11-29T17:17:39.571Z,56.90
2022-11-29T17:20:08.620Z,52.08
2022-11-29T17:23:17.782Z,49.40
2022-11-29T17:26:18.144Z,50.50
2022-11-29T17:28:53.712Z,46.78
2022-11-29T17:31:34.507Z,49.28
2022-11-29T17:34:12.529Z,46.58
2022-11-29T17:36:44.505Z,51.72
2022-11-29T17:39:20.360Z,51.58
2022-11-29T17:41:53.522Z,53.15
2022-11-29T17:44:27.530Z,53.78
2022-11-29T17:47:06.944Z,51.65
2022-11-29T17:49:45.313Z,52.47
2022-11-29T17:52:21.563Z,55.67
2022-11-29T17:54:57.662Z,48.55
2022-11-29T17:57:31.052Z,54.88
2022-11-29T18:00:10.822Z,50.58
2022-11-29T18:02:45.592Z,53.05
2022-11-29T18:05:18.911Z,56.95
2022-11-29T18:08:12.705Z,49.55
2022-11-29T18:10:47.909Z,52.83
2022-11-29T18:13:24.946Z,49.60
2022-11-29T18:16:05.206Z,50.90
2022-11-29T18:18:38.932Z,55.20
2022-11-29T18:21:20.058Z,58.42
2022-11-29T18:23:53.688Z,54.53
2022-11-29T18:26:30.089Z,55.53
2022-11-29T18:28:59.087Z,57.45
2022-11-29T18:31:32.246Z,56.85
2022-11-29T18:34:09.748Z,54.80
2022-11-29T18:36:52.319Z,62.60
2022-11-29T18:39:26.945Z,56.80
2022-11-29T18:42:02.999Z,59.15
2022-11-29T18:47:09.389Z,60.20
2022-11-29T18:52:31.146Z,54.53
2022-11-29T18:55:03.737Z,56.38
2022-11-29T18:57:35.364Z,55.60
2022-11-29T19:00:10.041Z,55.70
2022-11-29T19:02:43.921Z,55.92
2022-11-29T19:05:17.330Z,52.03
2022-11-29T19:07:51.537Z,57.08
2022-11-29T19:10:27.161Z,53.00
2022-11-29T19:13:03.988Z,55.22
2022-11-29T19:16:00.259Z,53.97
2022-11-29T19:18:38.022Z,61.05
2022-11-29T19:21:13.976Z,62.08
2022-11-29T19:23:48.746Z,61.28
2022-11-29T19:26:25.919Z,65.13
2022-11-29T19:28:54.687Z,62.70
2022-11-29T19:31:30.068Z,68.07
2022-11-29T19:34:06.080Z,77.80
2022-11-29T19:36:45.718Z,70.57
2022-11-29T19:39:21.708Z,71.53
2022-11-29T19:41:56.060Z,68.05
2022-11-29T19:44:30.165Z,67.57
2022-11-29T19:47:16.136Z,62.95
2022-11-29T19:49:50.396Z,57.22
2022-11-29T19:52:24.053Z,58.22
2022-11-29T19:54:57.090Z,49.72
2022-11-29T19:57:29.836Z,57.72
2022-11-29T20:00:13.123Z,55.70
2022-11-29T20:02:43.473Z,57.88
2022-11-29T20:05:25.443Z,61.03
2022-11-29T20:08:01.820Z,59.63
2022-11-29T20:10:38.748Z,64.50
2022-11-29T20:13:15.137Z,62.72
2022-11-29T20:15:48.669Z,61.03
2022-11-29T20:18:26.183Z,67.47
2022-11-29T20:20:58.567Z,63.65
2022-11-29T20:23:33.076Z,63.65
2022-11-29T20:26:06.198Z,58.58
2022-11-29T20:28:41.057Z,61.65
2022-11-29T20:31:17.166Z,63.55
2022-11-29T20:33:52.277Z,58.28
2022-11-29T20:36:52.884Z,55.05
2022-11-29T20:40:06.603Z,55.20
2022-11-29T20:43:17.812Z,52.58
2022-11-29T20:45:56.133Z,61.72
2022-11-29T20:48:34.098Z,52.92
2022-11-29T20:51:06.641Z,50.58
2022-11-29T20:53:42.923Z,58.28
2022-11-29T20:56:20.352Z,50.38
2022-11-29T20:58:56.897Z,54.10
2022-11-29T21:01:31.922Z,56.75
2022-11-29T21:04:22.849Z,52.95
2022-11-29T21:07:03.623Z,56.30
2022-11-29T21:09:38.766Z,55.17
2022-11-29T21:12:15.059Z,42.65
2022-11-29T21:14:44.555Z,56.83
2022-11-29T21:17:18.433Z,58.90
2022-11-29T21:19:59.256Z,53.42
2022-11-29T21:22:58.483Z,54.75
2022-11-29T21:26:03.895Z,57.10
2022-11-29T21:28:41.885Z,57.00
2022-11-29T21:31:19.601Z,53.63
2022-11-29T21:34:04.341Z,58.58
2022-11-29T21:39:22.075Z,54.40
2022-11-29T21:41:50.142Z,55.65
2022-11-29T21:44:17.896Z,50.50
2022-11-29T21:46:47.408Z,52.88
2022-11-29T21:49:15.369Z,56.38
2022-11-29T21:51:43.518Z,59.67
2022-11-29T21:54:11.933Z,51.00
2022-11-29T21:56:39.656Z,52.80
2022-11-29T21:59:06.939Z,57.60
2022-11-29T22:01:34.545Z,54.45
2022-11-29T22:04:02.369Z,57.42
2022-11-29T22:06:30.605Z,51.50
2022-11-29T22:09:09.357Z,53.53
2022-11-29T22:11:37.453Z,54.83
2022-11-29T22:14:16.496Z,53.78
2022-11-29T22:17:04.050Z,54.45
2022-11-29T22:19:34.426Z,57.15
2022-11-29T22:22:04.802Z,62.08
2022-11-29T22:24:34.418Z,62.95
2022-11-29T22:27:05.185Z,58.08
2022-11-29T22:29:33.025Z,54.20
2022-11-29T22:32:01.787Z,65.28
2022-11-29T22:34:29.163Z,60.28
2022-11-29T22:36:57.620Z,62.72
2022-11-29T22:39:26.041Z,56.22
2022-11-29T22:41:54.969Z,58.53
2022-11-29T22:44:22.901Z,52.00
2022-11-29T22:46:50.689Z,56.92
2022-11-29T22:49:17.922Z,59.60
2022-11-29T22:51:46.086Z,52.83
2022-11-29T22:54:16.628Z,59.58
2022-11-29T22:56:45.471Z,55.47
2022-11-29T22:59:13.314Z,51.35
2022-11-29T23:01:41.754Z,53.08
2022-11-29T23:04:12.830Z,53.17
2022-11-29T23:06:43.135Z,52.63
2022-11-29T23:09:16.697Z,49.65
2022-11-29T23:11:46.046Z,55.20
2022-11-29T23:14:13.721Z,51.03
2022-11-29T23:16:40.956Z,50.17
2022-11-29T23:19:08.680Z,55.05
2022-11-29T23:21:40.837Z,51.90
2022-11-29T23:24:08.341Z,47.80
2022-11-29T23:26:40.175Z,54.10
2022-11-29T23:29:09.791Z,47.22
2022-11-29T23:31:37.097Z,49.63
2022-11-29T23:34:04.536Z,51.03
2022-11-29T23:36:31.955Z,54.08
2022-11-29T23:38:59.132Z,47.28
2022-11-29T23:41:26.285Z,47.85
2022-11-29T23:43:53.579Z,54.88
2022-11-29T23:46:24.634Z,48.72
2022-11-29T23:48:52.033Z,51.45
2022-11-29T23:51:21.036Z,49.33
2022-11-29T23:53:53.234Z,54.60
2022-11-29T23:56:21.756Z,54.00
2022-11-29T23:58:49.381Z,51.22
